createdAt,value
2022-12-23T00:00:31.437Z,102001.81
2022-12-23T00:03:19.632Z,102003.41
2022-12-23T00:05:47.665Z,101992.98
2022-12-23T00:08:16.079Z,101984.86
2022-12-23T00:10:44.640Z,101990.94
2022-12-23T00:13:12.932Z,101998.34
2022-12-23T00:15:41.138Z,101999.25
2022-12-23T00:18:09.737Z,102006.67
2022-12-23T00:20:37.856Z,101998.17
2022-12-23T00:23:06.724Z,101996.83
2022-12-23T00:25:37.223Z,101994.98
2022-12-23T00:28:05.496Z,101986.44
2022-12-23T00:30:33.735Z,101985.85
2022-12-23T00:33:01.878Z,101987.52
2022-12-23T00:35:31.610Z,101983.54
2022-12-23T00:37:59.788Z,101974.52
2022-12-23T00:40:28.531Z,101974.73
2022-12-23T00:42:56.782Z,101971.59
2022-12-23T00:45:24.968Z,101967.39
2022-12-23T00:47:53.763Z,101967.11
2022-12-23T00:50:22.646Z,101964.30
2022-12-23T00:52:50.860Z,101960.79
2022-12-23T00:55:19.645Z,101960.09
2022-12-23T00:57:47.861Z,101954.64
2022-12-23T01:00:16.832Z,101954.98
2022-12-23T01:02:45.391Z,101959.83
2022-12-23T01:05:13.548Z,101962.98
2022-12-23T01:07:41.680Z,101964.34
2022-12-23T01:10:10.354Z,101960.10
2022-12-23T01:12:38.695Z,101954.60
2022-12-23T01:15:07.609Z,101955.11
2022-12-23T01:17:36.174Z,101959.64
2022-12-23T01:20:04.951Z,101958.80
2022-12-23T01:22:33.209Z,101957.96
2022-12-23T01:25:01.600Z,101958.12
2022-12-23T01:27:29.764Z,101958.56
2022-12-23T01:29:57.879Z,101957.83
2022-12-23T01:32:26.272Z,101957.50
2022-12-23T01:34:54.459Z,101954.45
2022-12-23T01:37:23.072Z,101951.84
2022-12-23T01:39:51.301Z,101956.20
2022-12-23T01:42:21.209Z,101952.22
2022-12-23T01:45:01.669Z,101948.92
2022-12-23T01:47:49.911Z,101952.19
2022-12-23T01:50:38.239Z,101956.97
2022-12-23T01:53:11.969Z,101959.45
2022-12-23T01:55:49.754Z,101961.39
2022-12-23T01:58:37.982Z,101961.79
2022-12-23T02:01:07.516Z,101967.73
2022-12-23T02:03:36.797Z,101971.30
2022-12-23T02:06:05.405Z,101971.15
2022-12-23T02:08:33.666Z,101970.08
2022-12-23T02:11:18.882Z,101967.66
2022-12-23T02:14:03.585Z,101970.20
2022-12-23T02:16:37.999Z,101971.75
2022-12-23T02:19:22.918Z,101972.30
2022-12-23T02:22:28.453Z,101974.33
2022-12-23T02:25:38.259Z,101972.48
2022-12-23T02:28:21.278Z,101978.10
2022-12-23T02:30:59.985Z,101980.67
2022-12-23T02:33:33.727Z,101984.08
2022-12-23T02:36:17.401Z,101987.76
2022-12-23T02:38:49.994Z,101986.19
2022-12-23T02:41:30.505Z,101988.16
2022-12-23T02:44:44.575Z,101988.42
2022-12-23T02:47:22.011Z,101984.63
2022-12-23T02:49:57.362Z,101973.46
2022-12-23T02:52:32.135Z,101972.47
2022-12-23T02:55:12.556Z,101974.50
2022-12-23T02:57:47.463Z,101977.14
2022-12-23T03:00:16.852Z,101975.14
2022-12-23T03:02:45.447Z,101966.14
2022-12-23T03:05:34.860Z,101954.26
2022-12-23T03:08:06.223Z,101950.02
2022-12-23T03:10:47.474Z,101958.16
2022-12-23T03:13:33.049Z,101961.95
2022-12-23T03:16:19.764Z,101958.87
2022-12-23T03:19:08.078Z,101954.96
2022-12-23T03:21:55.102Z,101949.52
2022-12-23T03:24:41.761Z,101948.80
2022-12-23T03:27:25.265Z,101956.48
2022-12-23T03:30:04.597Z,101959.94
2022-12-23T03:32:39.852Z,101960.46
2022-12-23T03:35:12.915Z,101960.52
2022-12-23T03:37:46.033Z,101957.09
2022-12-23T03:40:21.647Z,101953.73
2022-12-23T03:42:56.980Z,101954.31
2022-12-23T03:45:40.339Z,101951.48
2022-12-23T03:48:27.171Z,101952.48
2022-12-23T03:51:04.831Z,101954.31
2022-12-23T03:53:39.456Z,101951.64
2022-12-23T03:56:25.067Z,101948.51
2022-12-23T03:58:56.816Z,101948.14
2022-12-23T04:01:37.707Z,101947.27
2022-12-23T04:04:16.053Z,101942.39
2022-12-23T04:06:51.283Z,101942.27
2022-12-23T04:09:22.549Z,101940.36
2022-12-23T04:11:51.842Z,101938.18
2022-12-23T04:14:22.424Z,101935.52
2022-12-23T04:16:56.540Z,101932.15
2022-12-23T04:19:25.395Z,101938.63
2022-12-23T04:21:56.491Z,101935.86
2022-12-23T04:24:24.590Z,101935.40
2022-12-23T04:26:52.832Z,101936.66
2022-12-23T04:29:21.029Z,101934.42
2022-12-23T04:31:49.321Z,101933.73
2022-12-23T04:34:17.965Z,101933.37
2022-12-23T04:36:46.294Z,101933.53
2022-12-23T04:39:14.391Z,101935.14
2022-12-23T04:41:42.745Z,101935.49
2022-12-23T04:44:10.925Z,101934.98
2022-12-23T04:46:39.173Z,101934.05
2022-12-23T04:49:07.543Z,101933.23
2022-12-23T04:51:35.782Z,101931.43
2022-12-23T04:54:04.093Z,101936.14
2022-12-23T04:56:32.388Z,101931.84
2022-12-23T04:59:00.584Z,101927.27
2022-12-23T05:01:28.987Z,101922.36
2022-12-23T05:03:57.986Z,101916.84
2022-12-23T05:06:26.702Z,101917.85
2022-12-23T05:08:54.882Z,101916.48
2022-12-23T05:11:23.695Z,101916.91
2022-12-23T05:13:51.847Z,101915.39
2022-12-23T05:16:20.227Z,101912.51
2022-12-23T05:18:49.019Z,101912.19
2022-12-23T05:21:17.410Z,101915.31
2022-12-23T05:23:45.669Z,101914.50
2022-12-23T05:26:13.940Z,101911.19
2022-12-23T05:28:42.157Z,101913.27
2022-12-23T05:31:12.011Z,101911.70
2022-12-23T05:33:41.372Z,101909.33
2022-12-23T05:36:11.220Z,101908.30
2022-12-23T05:38:39.538Z,101914.95
2022-12-23T05:41:08.152Z,101917.33
2022-12-23T05:43:36.376Z,101915.34
2022-12-23T05:46:04.712Z,101917.46
2022-12-23T05:48:32.949Z,101919.70
2022-12-23T05:51:01.180Z,101922.42
2022-12-23T05:53:29.447Z,101927.48
2022-12-23T05:55:57.974Z,101930.02
2022-12-23T05:58:26.148Z,101927.92
2022-12-23T06:00:54.161Z,101927.83
2022-12-23T06:03:23.141Z,101924.13
2022-12-23T06:05:52.271Z,101928.52
2022-12-23T06:08:20.981Z,101928.99
2022-12-23T06:10:49.663Z,101924.95
2022-12-23T06:13:17.863Z,101921.31
2022-12-23T06:15:46.995Z,101918.04
2022-12-23T06:18:15.467Z,101922.73
2022-12-23T06:20:47.827Z,101921.84
2022-12-23T06:23:16.099Z,101920.91
2022-12-23T06:25:44.597Z,101920.25
2022-12-23T06:28:12.956Z,101917.30
2022-12-23T06:30:41.228Z,101921.06
2022-12-23T06:33:09.472Z,101928.37
2022-12-23T06:35:37.675Z,101924.67
2022-12-23T06:38:11.845Z,101924.41
2022-12-23T06:40:40.847Z,101932.29
2022-12-23T06:43:09.174Z,101938.89
2022-12-23T06:45:37.431Z,101935.13
2022-12-23T06:48:06.523Z,101941.59
2022-12-23T06:50:35.943Z,101940.08
2022-12-23T06:53:04.702Z,101938.88
2022-12-23T06:55:33.171Z,101941.40
2022-12-23T06:58:01.726Z,101935.97
2022-12-23T07:00:30.006Z,101934.59
2022-12-23T07:02:58.331Z,101935.02
2022-12-23T07:05:33.286Z,101933.54
2022-12-23T07:08:05.880Z,101930.02
2022-12-23T07:10:34.872Z,101922.95
2022-12-23T07:13:03.267Z,101926.17
2022-12-23T07:15:31.347Z,101927.67
2022-12-23T07:17:59.552Z,101936.89
2022-12-23T07:20:27.577Z,101940.94
2022-12-23T07:22:55.974Z,101940.21
2022-12-23T07:25:25.773Z,101942.27
2022-12-23T07:27:54.929Z,101945.50
2022-12-23T07:30:24.079Z,101950.88
2022-12-23T07:32:52.939Z,101955.17
2022-12-23T07:35:21.188Z,101958.95
2022-12-23T07:37:56.719Z,101958.17
2022-12-23T07:40:25.938Z,101956.57
2022-12-23T07:42:59.331Z,101955.59
2022-12-23T07:45:29.422Z,101959.89
2022-12-23T07:48:00.145Z,101956.88
2022-12-23T07:50:28.587Z,101949.69
2022-12-23T07:52:57.108Z,101951.73
2022-12-23T07:55:25.982Z,101958.40
2022-12-23T07:57:54.149Z,101963.84
2022-12-23T08:00:22.674Z,101968.04
2022-12-23T08:02:51.081Z,101964.95
2022-12-23T08:05:19.519Z,101967.37
2022-12-23T08:07:47.806Z,101969.84
2022-12-23T08:10:16.596Z,101969.49
2022-12-23T08:12:44.838Z,101971.25
2022-12-23T08:15:13.011Z,101972.73
2022-12-23T08:17:42.644Z,101970.16
2022-12-23T08:20:11.262Z,101974.61
2022-12-23T08:22:39.773Z,101970.33
2022-12-23T08:25:08.304Z,101969.91
2022-12-23T08:27:36.546Z,101975.33
2022-12-23T08:30:05.239Z,101972.88
2022-12-23T08:32:33.462Z,101978.15
2022-12-23T08:35:01.699Z,101980.63
2022-12-23T08:37:29.982Z,101989.99
2022-12-23T08:39:58.661Z,101991.61
2022-12-23T08:42:26.831Z,101995.55
2022-12-23T08:44:55.013Z,101998.72
2022-12-23T08:47:23.405Z,101996.73
2022-12-23T08:49:51.595Z,101995.48
2022-12-23T08:52:19.773Z,101996.47
2022-12-23T08:54:48.437Z,102004.52
2022-12-23T08:57:18.021Z,102003.23
2022-12-23T08:59:46.282Z,102004.05
2022-12-23T09:02:14.681Z,102007.73
2022-12-23T09:04:44.282Z,102001.54
2022-12-23T09:07:12.502Z,102003.15
2022-12-23T09:09:41.059Z,102004.33
2022-12-23T09:12:09.371Z,102014.47
2022-12-23T09:14:37.656Z,102015.05
2022-12-23T09:17:06.264Z,102017.92
2022-12-23T09:19:34.542Z,102022.13
2022-12-23T09:22:02.718Z,102022.73
2022-12-23T09:24:31.202Z,102013.64
2022-12-23T09:26:59.602Z,102012.72
2022-12-23T09:29:27.887Z,102017.43
2022-12-23T09:31:56.285Z,102016.91
2022-12-23T09:34:24.703Z,102018.27
2022-12-23T09:36:55.393Z,102016.91
2022-12-23T09:39:24.278Z,102012.15
2022-12-23T09:42:05.617Z,102021.65
2022-12-23T09:44:58.566Z,102020.11
2022-12-23T09:47:28.701Z,102020.10
2022-12-23T09:50:28.242Z,102018.73
2022-12-23T09:53:00.816Z,102023.66
2022-12-23T09:55:51.743Z,102024.03
2022-12-23T09:58:37.012Z,102021.89
2022-12-23T10:01:19.714Z,102022.30
2022-12-23T10:03:54.074Z,102021.71
2022-12-23T10:06:29.183Z,102020.25
2022-12-23T10:09:01.555Z,102017.23
2022-12-23T10:11:41.848Z,102017.36
2022-12-23T10:14:25.378Z,102016.85
2022-12-23T10:17:11.314Z,102013.02
2022-12-23T10:19:45.765Z,102017.17
2022-12-23T10:22:42.858Z,102012.59
2022-12-23T10:25:38.648Z,102011.09
2022-12-23T10:28:10.159Z,102014.79
2022-12-23T10:31:23.861Z,102005.29
2022-12-23T10:33:51.914Z,102001.88
2022-12-23T10:36:35.173Z,101997.45
2022-12-23T10:39:14.881Z,101992.66
2022-12-23T10:42:20.300Z,101983.89
2022-12-23T10:45:07.312Z,101986.23
2022-12-23T10:47:55.337Z,101983.60
2022-12-23T10:50:35.453Z,101976.55
2022-12-23T10:53:08.990Z,101976.80
2022-12-23T10:55:39.196Z,101965.34
2022-12-23T10:58:17.921Z,101958.02
2022-12-23T11:00:54.313Z,101963.21
2022-12-23T11:03:27.204Z,101959.72
2022-12-23T11:05:57.102Z,101953.41
2022-12-23T11:08:29.342Z,101956.36
2022-12-23T11:11:00.399Z,101954.15
2022-12-23T11:13:39.916Z,101950.06
2022-12-23T11:16:20.041Z,101946.98
2022-12-23T11:19:00.351Z,101941.28
2022-12-23T11:21:30.888Z,101940.41
2022-12-23T11:24:20.029Z,101932.95
2022-12-23T11:27:13.255Z,101929.20
2022-12-23T11:29:48.331Z,101930.30
2022-12-23T11:32:29.366Z,101930.35
2022-12-23T11:34:57.745Z,101923.36
2022-12-23T11:37:43.633Z,101916.92
2022-12-23T11:40:46.095Z,101920.24
2022-12-23T11:43:17.420Z,101905.26
2022-12-23T11:45:45.686Z,101906.40
2022-12-23T11:48:32.200Z,101902.66
2022-12-23T11:51:03.144Z,101902.36
2022-12-23T11:53:31.555Z,101897.48
2022-12-23T11:56:04.447Z,101894.83
2022-12-23T11:58:45.123Z,101891.98
2022-12-23T12:01:19.868Z,101886.60
2022-12-23T12:03:58.770Z,101884.08
2022-12-23T12:06:28.703Z,101883.84
2022-12-23T12:08:58.937Z,101878.65
2022-12-23T12:11:49.408Z,101884.35
2022-12-23T12:14:26.343Z,101867.65
2022-12-23T12:17:18.455Z,101861.96
2022-12-23T12:19:58.778Z,101853.41
2022-12-23T12:25:23.946Z,101821.10
2022-12-23T12:28:03.291Z,101821.88
2022-12-23T12:30:40.856Z,101811.96
2022-12-23T12:33:23.593Z,101805.19
2022-12-23T12:36:03.329Z,101795.28
2022-12-23T12:38:39.879Z,101792.82
2022-12-23T12:41:27.043Z,101790.48
2022-12-23T12:44:27.560Z,101797.41
2022-12-23T12:47:28.495Z,101790.83
2022-12-23T12:50:12.729Z,101787.55
2022-12-23T12:52:42.868Z,101784.39
2022-12-23T12:55:22.076Z,101779.98
2022-12-23T12:57:50.453Z,101777.36
2022-12-23T13:00:23.810Z,101772.74
2022-12-23T13:03:23.119Z,101771.17
2022-12-23T13:06:25.613Z,101770.45
2022-12-23T13:09:31.571Z,101766.30
2022-12-23T13:12:29.511Z,101760.41
2022-12-23T13:15:28.949Z,101750.88
2022-12-23T13:18:15.380Z,101740.12
2022-12-23T13:20:54.695Z,101740.97
2022-12-23T13:24:04.453Z,101732.56
2022-12-23T13:26:39.621Z,101728.60
2022-12-23T13:29:58.784Z,101722.52
2022-12-23T13:32:37.547Z,101722.75
2022-12-23T13:35:20.116Z,101718.80
2022-12-23T13:37:59.326Z,101722.98
2022-12-23T13:40:34.272Z,101719.77
2022-12-23T13:43:29.009Z,101718.02
2022-12-23T13:46:02.916Z,101711.23
2022-12-23T13:48:45.307Z,101722.70
2022-12-23T13:51:40.096Z,101722.58
2022-12-23T13:54:32.119Z,101720.69
2022-12-23T13:57:10.316Z,101717.64
2022-12-23T13:59:44.657Z,101716.84
2022-12-23T14:02:37.899Z,101711.92
2022-12-23T14:05:27.043Z,101713.90
2022-12-23T14:07:55.643Z,101716.11
2022-12-23T14:10:25.395Z,101709.77
2022-12-23T14:13:02.224Z,101708.21
2022-12-23T14:15:59.598Z,101711.34
2022-12-23T14:18:49.602Z,101708.14
2022-12-23T14:21:36.430Z,101703.63
2022-12-23T14:24:24.639Z,101697.13
2022-12-23T14:27:11.614Z,101697.54
2022-12-23T14:30:05.954Z,101695.50
2022-12-23T14:32:59.285Z,101692.39
2022-12-23T14:35:27.735Z,101695.28
2022-12-23T14:38:08.346Z,101696.86
2022-12-23T14:40:39.829Z,101694.20
2022-12-23T14:43:23.767Z,101698.52
2022-12-23T14:45:53.875Z,101697.45
2022-12-23T14:48:34.601Z,101699.47
2022-12-23T14:51:23.448Z,101703.61
2022-12-23T14:53:53.925Z,101706.06
2022-12-23T14:56:28.458Z,101711.32
2022-12-23T14:59:14.569Z,101714.88
2022-12-23T15:01:47.144Z,101714.94
2022-12-23T15:04:27.357Z,101713.81
2022-12-23T15:07:04.144Z,101711.23
2022-12-23T15:09:39.045Z,101708.48
2022-12-23T15:12:16.954Z,101711.79
2022-12-23T15:14:57.376Z,101708.64
2022-12-23T15:17:33.027Z,101716.80
2022-12-23T15:20:10.386Z,101714.77
2022-12-23T15:22:39.881Z,101712.24
2022-12-23T15:25:36.287Z,101716.16
2022-12-23T15:28:06.564Z,101711.33
2022-12-23T15:30:49.296Z,101715.13
2022-12-23T15:36:13.757Z,101714.66
2022-12-23T15:38:42.264Z,101708.65
2022-12-23T15:41:17.713Z,101715.67
2022-12-23T15:43:46.403Z,101718.99
2022-12-23T15:46:26.866Z,101714.56
2022-12-23T15:48:58.511Z,101706.25
2022-12-23T15:52:06.475Z,101707.98
2022-12-23T15:54:35.514Z,101706.04
2022-12-23T15:57:04.714Z,101710.17
2022-12-23T15:59:38.835Z,101709.14
2022-12-23T16:02:58.242Z,101708.70
2022-12-23T16:05:08.427Z,101702.43
2022-12-23T16:07:40.828Z,101702.98
2022-12-23T16:10:20.847Z,101696.88
2022-12-23T16:12:52.237Z,101700.55
2022-12-23T16:15:33.595Z,101702.17
2022-12-23T16:18:27.624Z,101699.88
2022-12-23T16:21:01.932Z,101698.33
2022-12-23T16:23:32.925Z,101701.55
2022-12-23T16:26:02.592Z,101707.60
2022-12-23T16:28:42.891Z,101712.85
2022-12-23T16:31:14.771Z,101715.86
2022-12-23T16:33:56.725Z,101721.77
2022-12-23T16:36:28.146Z,101721.27
2022-12-23T16:39:07.179Z,101724.36
2022-12-23T16:41:36.211Z,101727.94
2022-12-23T16:44:05.368Z,101724.29
2022-12-23T16:46:37.881Z,101728.80
2022-12-23T16:49:12.915Z,101728.77
2022-12-23T16:51:41.525Z,101730.98
2022-12-23T16:54:15.789Z,101734.56
2022-12-23T16:56:45.460Z,101729.27
2022-12-23T16:59:14.663Z,101732.68
2022-12-23T17:01:46.335Z,101731.55
2022-12-23T17:04:15.431Z,101738.25
2022-12-23T17:06:43.720Z,101746.25
2022-12-23T17:09:11.875Z,101753.59
2022-12-23T17:11:51.020Z,101758.20
2022-12-23T17:14:24.275Z,101760.84
2022-12-23T17:16:52.777Z,101764.40
2022-12-23T17:19:28.056Z,101763.31
2022-12-23T17:22:03.037Z,101766.25
2022-12-23T17:24:31.332Z,101768.31
2022-12-23T17:26:59.605Z,101765.98
2022-12-23T17:29:28.068Z,101768.06
2022-12-23T17:31:56.250Z,101769.17
2022-12-23T17:34:25.104Z,101767.77
2022-12-23T17:36:54.936Z,101762.75
2022-12-23T17:39:23.074Z,101757.24
2022-12-23T17:41:51.704Z,101752.32
2022-12-23T17:44:20.105Z,101749.16
2022-12-23T17:46:48.568Z,101754.77
2022-12-23T17:49:17.042Z,101753.11
2022-12-23T17:51:46.633Z,101751.79
2022-12-23T17:54:25.259Z,101754.35
2022-12-23T17:56:53.751Z,101753.16
2022-12-23T17:59:22.383Z,101752.31
2022-12-23T18:01:50.856Z,101747.55
2022-12-23T18:04:19.387Z,101749.33
2022-12-23T18:06:47.560Z,101747.23
2022-12-23T18:09:15.920Z,101748.20
2022-12-23T18:11:47.145Z,101745.88
2022-12-23T18:14:25.769Z,101748.93
2022-12-23T18:16:54.289Z,101756.12
2022-12-23T18:19:23.011Z,101762.75
2022-12-23T18:21:51.815Z,101769.80
2022-12-23T18:24:20.031Z,101773.15
2022-12-23T18:26:48.218Z,101771.97
2022-12-23T18:29:16.542Z,101768.52
2022-12-23T18:31:52.288Z,101769.58
2022-12-23T18:34:21.353Z,101768.11
2022-12-23T18:36:49.857Z,101764.54
2022-12-23T18:39:18.061Z,101771.30
2022-12-23T18:41:46.449Z,101770.65
2022-12-23T18:44:21.713Z,101774.88
2022-12-23T18:46:50.389Z,101775.77
2022-12-23T18:49:19.198Z,101783.30
2022-12-23T18:51:48.090Z,101785.14
2022-12-23T18:54:17.627Z,101782.46
2022-12-23T18:56:45.871Z,101785.08
2022-12-23T18:59:27.532Z,101784.70
2022-12-23T19:01:58.003Z,101784.05
2022-12-23T19:04:27.652Z,101784.11
2022-12-23T19:06:56.894Z,101790.63
2022-12-23T19:09:25.079Z,101794.02
2022-12-23T19:11:53.714Z,101795.87
2022-12-23T19:14:22.120Z,101796.23
2022-12-23T19:16:52.209Z,101791.30
2022-12-23T19:19:22.120Z,101791.95
2022-12-23T19:21:50.383Z,101787.80
2022-12-23T19:24:18.620Z,101790.95
2022-12-23T19:26:48.214Z,101792.27
2022-12-23T19:29:16.703Z,101791.87
2022-12-23T19:31:44.874Z,101793.65
2022-12-23T19:34:15.690Z,101795.50
2022-12-23T19:36:44.525Z,101796.52
2022-12-23T19:39:14.022Z,101793.70
2022-12-23T19:41:42.569Z,101790.60
2022-12-23T19:44:10.688Z,101796.16
2022-12-23T19:46:39.115Z,101796.31
2022-12-23T19:49:07.957Z,101794.77
2022-12-23T19:51:37.367Z,101789.35
2022-12-23T19:54:06.303Z,101783.84
2022-12-23T19:56:35.180Z,101787.41
2022-12-23T19:59:03.556Z,101791.54
2022-12-23T20:01:32.263Z,101796.73
2022-12-23T20:04:00.635Z,101798.58
2022-12-23T20:06:32.549Z,101801.33
2022-12-23T20:09:01.733Z,101799.58
2022-12-23T20:11:35.501Z,101801.92
2022-12-23T20:14:05.404Z,101801.84
2022-12-23T20:16:34.799Z,101800.63
2022-12-23T20:19:03.703Z,101798.70
2022-12-23T20:21:32.486Z,101803.86
2022-12-23T20:24:01.883Z,101808.02
2022-12-23T20:26:32.519Z,101807.89
2022-12-23T20:29:00.627Z,101807.27
2022-12-23T20:31:32.098Z,101802.33
2022-12-23T20:34:02.783Z,101805.20
2022-12-23T20:36:34.290Z,101805.37
2022-12-23T20:39:04.878Z,101805.76
2022-12-23T20:41:33.361Z,101798.61
2022-12-23T20:44:33.422Z,101804.52
2022-12-23T20:46:50.699Z,101803.29
2022-12-23T20:49:18.995Z,101802.20
2022-12-23T20:51:47.193Z,101804.34
2022-12-23T20:54:15.650Z,101798.39
2022-12-23T20:56:43.946Z,101799.06
2022-12-23T20:59:12.441Z,101800.83
2022-12-23T21:01:41.380Z,101798.47
2022-12-23T21:04:15.366Z,101794.86
2022-12-23T21:06:44.908Z,101794.35
2022-12-23T21:09:14.380Z,101794.84
2022-12-23T21:11:45.688Z,101796.33
2022-12-23T21:14:14.948Z,101800.20
2022-12-23T21:16:43.601Z,101798.58
2022-12-23T21:19:22.681Z,101796.66
2022-12-23T21:21:52.002Z,101801.10
2022-12-23T21:24:21.027Z,101803.12
2022-12-23T21:26:56.021Z,101804.74
2022-12-23T21:29:26.320Z,101803.66
2022-12-23T21:31:54.803Z,101800.95
2022-12-23T21:34:23.454Z,101799.89
2022-12-23T21:36:54.190Z,101796.32
2022-12-23T21:39:22.748Z,101793.91
2022-12-23T21:41:51.148Z,101793.00
2022-12-23T21:44:19.503Z,101797.30
2022-12-23T21:46:50.680Z,101793.83
2022-12-23T21:49:19.426Z,101793.14
2022-12-23T21:51:47.799Z,101792.91
2022-12-23T21:54:16.082Z,101799.16
2022-12-23T21:56:44.931Z,101796.23
2022-12-23T21:59:14.609Z,101796.11
2022-12-23T22:01:44.124Z,101796.30
2022-12-23T22:04:12.868Z,101793.93
2022-12-23T22:06:42.998Z,101794.92
2022-12-23T22:09:14.688Z,101795.55
2022-12-23T22:11:43.175Z,101796.55
2022-12-23T22:14:15.169Z,101792.83
2022-12-23T22:16:43.642Z,101793.81
2022-12-23T22:19:12.406Z,101793.55
2022-12-23T22:21:40.577Z,101792.05
2022-12-23T22:24:09.004Z,101791.91
2022-12-23T22:26:37.430Z,101788.05
2022-12-23T22:29:06.359Z,101788.50
2022-12-23T22:31:38.486Z,101792.71
2022-12-23T22:34:08.395Z,101788.06
2022-12-23T22:36:36.735Z,101789.38
2022-12-23T22:39:07.854Z,101789.41
2022-12-23T22:41:36.630Z,101785.59
2022-12-23T22:44:04.958Z,101789.86
2022-12-23T22:46:33.456Z,101789.31
2022-12-23T22:49:03.053Z,101790.71
2022-12-23T22:51:32.145Z,101791.75
2022-12-23T22:54:03.314Z,101791.72
2022-12-23T22:56:32.817Z,101792.63
2022-12-23T22:59:01.086Z,101792.19
2022-12-23T23:01:32.827Z,101790.98
2022-12-23T23:04:03.144Z,101791.37
2022-12-23T23:06:34.860Z,101788.11
2022-12-23T23:09:03.648Z,101786.91
2022-12-23T23:11:31.827Z,101781.24
2022-12-23T23:14:00.781Z,101780.67
2022-12-23T23:16:29.996Z,101777.41
2022-12-23T23:18:58.261Z,101776.85
2022-12-23T23:21:28.925Z,101775.30
2022-12-23T23:23:58.046Z,101772.63
2022-12-23T23:26:27.013Z,101775.58
2022-12-23T23:28:56.606Z,101775.20
2022-12-23T23:31:41.934Z,101770.66
2022-12-23T23:34:12.953Z,101771.95
2022-12-23T23:36:41.337Z,101766.52
2022-12-23T23:39:12.289Z,101767.80
2022-12-23T23:41:40.629Z,101764.86
2022-12-23T23:44:09.841Z,101767.58
2022-12-23T23:46:39.674Z,101768.90
2022-12-23T23:49:07.920Z,101766.71
2022-12-23T23:51:36.079Z,101764.70
2022-12-23T23:54:04.524Z,101767.67
2022-12-23T23:56:38.259Z,101768.36
2022-12-23T23:59:08.916Z,101767.45
